createdAt,value
2022-11-28T00:01:48.014Z,85.83
2022-11-28T00:03:49.869Z,85.53
2022-11-28T00:05:53.021Z,85.67
2022-11-28T00:07:55.883Z,85.64
2022-11-28T00:09:57.859Z,85.47
2022-11-28T00:11:59.713Z,85.42
2022-11-28T00:14:01.579Z,85.70
2022-11-28T00:16:06.748Z,85.33
2022-11-28T00:18:08.703Z,85.29
2022-11-28T00:20:10.837Z,85.84
2022-11-28T00:22:12.942Z,85.53
2022-11-28T00:24:16.890Z,85.62
2022-11-28T00:26:23.421Z,85.39
2022-11-28T00:28:25.285Z,85.71
2022-11-28T00:30:27.203Z,85.44
2022-11-28T00:32:29.071Z,86.08
2022-11-28T00:34:30.970Z,85.56
2022-11-28T00:36:33.106Z,85.96
2022-11-28T00:38:35.970Z,86.04
2022-11-28T00:40:38.097Z,86.17
2022-11-28T00:42:39.990Z,86.22
2022-11-28T00:44:42.040Z,86.00
2022-11-28T00:46:44.314Z,86.22
2022-11-28T00:48:47.110Z,86.11
2022-11-28T00:50:49.250Z,86.33
2022-11-28T00:52:51.059Z,86.36
2022-11-28T00:54:52.918Z,85.98
2022-11-28T00:56:54.793Z,86.46
2022-11-28T00:58:57.188Z,85.87
2022-11-28T01:00:59.117Z,86.14
2022-11-28T01:03:00.982Z,85.93
2022-11-28T01:05:02.893Z,85.94
2022-11-28T01:07:04.847Z,86.51
2022-11-28T01:09:11.787Z,85.95
2022-11-28T01:11:14.169Z,86.34
2022-11-28T01:13:16.000Z,86.56
2022-11-28T01:15:18.263Z,86.28
2022-11-28T01:17:20.103Z,86.54
2022-11-28T01:19:22.085Z,86.64
2022-11-28T01:21:25.986Z,86.18
2022-11-28T01:23:27.910Z,86.59
2022-11-28T01:25:30.192Z,86.18
2022-11-28T01:27:32.083Z,86.03
2022-11-28T01:29:34.082Z,86.39
2022-11-28T01:31:37.560Z,86.03
2022-11-28T01:33:39.409Z,86.09
2022-11-28T01:35:41.273Z,86.19
2022-11-28T01:37:43.122Z,85.93
2022-11-28T01:39:44.991Z,85.91
2022-11-28T01:41:46.852Z,85.58
2022-11-28T01:44:02.924Z,85.61
2022-11-28T01:46:06.848Z,86.08
2022-11-28T01:48:12.033Z,85.87
2022-11-28T01:50:14.402Z,85.83
2022-11-28T01:52:19.132Z,86.04
2022-11-28T01:54:25.506Z,85.63
2022-11-28T01:56:32.324Z,85.44
2022-11-28T01:58:36.758Z,85.89
2022-11-28T02:00:39.175Z,85.44
2022-11-28T02:03:06.922Z,85.85
2022-11-28T02:05:09.349Z,85.89
2022-11-28T02:07:11.299Z,85.50
2022-11-28T02:09:15.515Z,85.74
2022-11-28T02:11:33.874Z,85.55
2022-11-28T02:14:08.197Z,85.50
2022-11-28T02:16:26.375Z,85.75
2022-11-28T02:18:55.499Z,85.39
2022-11-28T02:21:13.956Z,85.14
2022-11-28T02:23:35.253Z,85.25
2022-11-28T02:26:06.215Z,85.72
2022-11-28T02:28:11.114Z,85.72
2022-11-28T02:30:16.429Z,85.57
2022-11-28T02:32:51.988Z,85.93
2022-11-28T02:34:56.993Z,85.54
2022-11-28T02:37:09.889Z,85.72
2022-11-28T02:39:37.730Z,85.74
2022-11-28T02:41:47.786Z,85.39
2022-11-28T02:44:07.619Z,85.45
2022-11-28T02:46:55.320Z,85.42
2022-11-28T02:49:12.724Z,85.89
2022-11-28T02:51:27.477Z,85.62
2022-11-28T02:53:33.054Z,85.54
2022-11-28T02:55:39.573Z,85.81
2022-11-28T02:57:48.319Z,85.48
2022-11-28T02:59:50.927Z,85.55
2022-11-28T03:01:52.985Z,86.06
2022-11-28T03:04:37.408Z,85.52
2022-11-28T03:07:00.230Z,85.91
2022-11-28T03:09:11.753Z,85.76
2022-11-28T03:11:27.860Z,85.87
2022-11-28T03:13:49.233Z,85.73
2022-11-28T03:16:09.701Z,85.36
2022-11-28T03:18:23.350Z,85.49
2022-11-28T03:20:48.517Z,85.89
2022-11-28T03:22:56.515Z,85.81
2022-11-28T03:25:06.572Z,85.49
2022-11-28T03:27:19.437Z,86.10
2022-11-28T03:29:33.031Z,85.48
2022-11-28T03:31:44.623Z,85.52
2022-11-28T03:33:52.087Z,85.53
2022-11-28T03:35:58.740Z,85.98
2022-11-28T03:38:07.958Z,85.88
2022-11-28T03:40:15.891Z,85.76
2022-11-28T03:42:23.192Z,86.04
2022-11-28T03:44:30.980Z,85.45
2022-11-28T03:46:38.701Z,85.72
2022-11-28T03:48:46.067Z,85.84
2022-11-28T03:50:54.855Z,85.41
2022-11-28T03:53:02.440Z,85.65
2022-11-28T03:55:16.816Z,86.04
2022-11-28T03:57:38.795Z,86.21
2022-11-28T03:59:44.686Z,85.70
2022-11-28T04:01:58.641Z,86.13
2022-11-28T04:04:26.647Z,85.68
2022-11-28T04:06:32.088Z,86.46
2022-11-28T04:08:41.550Z,86.24
2022-11-28T04:10:52.844Z,85.61
2022-11-28T04:13:03.189Z,85.51
2022-11-28T04:15:14.145Z,85.71
2022-11-28T04:17:32.731Z,85.77
2022-11-28T04:19:41.636Z,85.94
2022-11-28T04:21:55.793Z,86.05
2022-11-28T04:24:04.110Z,86.13
2022-11-28T04:26:20.649Z,85.53
2022-11-28T04:28:26.216Z,86.09
2022-11-28T04:30:28.128Z,85.87
2022-11-28T04:32:33.315Z,85.46
2022-11-28T04:34:36.877Z,85.81
2022-11-28T04:36:41.188Z,85.54
2022-11-28T04:38:49.660Z,85.39
2022-11-28T04:40:57.007Z,85.32
2022-11-28T04:43:06.755Z,85.94
2022-11-28T04:45:43.503Z,85.99
2022-11-28T04:47:45.839Z,85.70
2022-11-28T04:49:47.733Z,85.35
2022-11-28T04:51:54.969Z,85.41
2022-11-28T04:54:23.108Z,85.31
2022-11-28T04:56:31.700Z,85.46
2022-11-28T04:58:40.659Z,85.86
2022-11-28T05:00:44.329Z,84.94
2022-11-28T05:02:49.698Z,85.12
2022-11-28T05:04:55.817Z,85.74
2022-11-28T05:07:05.945Z,85.31
2022-11-28T05:09:07.872Z,85.46
2022-11-28T05:11:09.693Z,85.25
2022-11-28T05:13:11.511Z,85.22
2022-11-28T05:15:13.455Z,84.87
2022-11-28T05:17:15.371Z,84.77
2022-11-28T05:19:17.720Z,85.19
2022-11-28T05:21:19.797Z,85.26
2022-11-28T05:23:21.703Z,85.58
2022-11-28T05:25:23.935Z,85.12
2022-11-28T05:27:25.787Z,85.26
2022-11-28T05:29:27.574Z,85.23
2022-11-28T05:31:29.665Z,85.79
2022-11-28T05:33:33.458Z,85.30
2022-11-28T05:35:35.376Z,85.32
2022-11-28T05:37:38.512Z,85.71
2022-11-28T05:39:40.592Z,85.45
2022-11-28T05:41:42.591Z,85.65
2022-11-28T05:43:44.532Z,85.34
2022-11-28T05:45:46.437Z,85.21
2022-11-28T05:47:48.353Z,85.03
2022-11-28T05:49:50.276Z,85.41
2022-11-28T05:51:52.102Z,85.16
2022-11-28T05:53:54.318Z,85.24
2022-11-28T05:55:56.237Z,85.38
2022-11-28T05:57:58.053Z,85.34
2022-11-28T06:00:01.097Z,85.41
2022-11-28T06:02:03.084Z,85.08
2022-11-28T06:04:05.111Z,85.28
2022-11-28T06:06:18.111Z,85.44
2022-11-28T06:08:20.040Z,85.22
2022-11-28T06:10:22.800Z,85.32
2022-11-28T06:12:24.605Z,85.17
2022-11-28T06:14:26.435Z,85.12
2022-11-28T06:16:30.056Z,85.29
2022-11-28T06:18:33.998Z,85.52
2022-11-28T06:20:35.992Z,85.36
2022-11-28T06:22:37.832Z,85.21
2022-11-28T06:24:39.610Z,85.32
2022-11-28T06:26:41.420Z,85.00
2022-11-28T06:28:44.067Z,85.39
2022-11-28T06:30:45.979Z,85.00
2022-11-28T06:32:47.833Z,85.45
2022-11-28T06:34:52.838Z,85.17
2022-11-28T06:36:54.815Z,85.63
2022-11-28T06:38:56.798Z,85.54
2022-11-28T06:41:06.526Z,85.05
2022-11-28T06:43:08.366Z,85.57
2022-11-28T06:45:10.624Z,85.17
2022-11-28T06:47:12.559Z,85.15
2022-11-28T06:49:26.285Z,85.16
2022-11-28T06:51:28.767Z,85.24
2022-11-28T06:53:31.702Z,84.69
2022-11-28T06:55:33.823Z,85.03
2022-11-28T06:57:35.991Z,85.03
2022-11-28T06:59:37.877Z,84.97
2022-11-28T07:01:39.869Z,85.01
2022-11-28T07:03:42.610Z,85.06
2022-11-28T07:05:44.538Z,85.19
2022-11-28T07:07:54.092Z,85.46
2022-11-28T07:09:56.552Z,84.83
2022-11-28T07:12:00.452Z,84.84
2022-11-28T07:14:03.121Z,84.76
2022-11-28T07:16:05.222Z,85.19
2022-11-28T07:18:07.121Z,84.93
2022-11-28T07:20:12.666Z,85.02
2022-11-28T07:22:14.611Z,84.99
2022-11-28T07:24:18.623Z,85.26
2022-11-28T07:26:22.016Z,85.08
2022-11-28T07:28:23.917Z,84.92
2022-11-28T07:30:26.359Z,84.41
2022-11-28T07:32:28.284Z,84.42
2022-11-28T07:34:30.138Z,84.65
2022-11-28T07:36:32.598Z,84.65
2022-11-28T07:38:34.623Z,84.91
2022-11-28T07:40:37.600Z,84.47
2022-11-28T07:42:39.987Z,84.23
2022-11-28T07:44:41.846Z,84.67
2022-11-28T07:46:45.508Z,84.52
2022-11-28T07:48:53.059Z,84.17
2022-11-28T07:50:55.977Z,84.00
2022-11-28T07:52:59.790Z,84.32
2022-11-28T07:55:05.039Z,84.13
2022-11-28T07:57:14.214Z,84.14
2022-11-28T07:59:16.443Z,84.03
2022-11-28T08:01:28.371Z,84.50
2022-11-28T08:03:30.194Z,83.94
2022-11-28T08:05:32.087Z,83.85
2022-11-28T08:07:34.038Z,83.39
2022-11-28T08:09:36.980Z,83.48
2022-11-28T08:11:39.394Z,83.47
2022-11-28T08:13:41.669Z,82.96
2022-11-28T08:15:43.683Z,83.12
2022-11-28T08:17:46.740Z,83.22
2022-11-28T08:19:49.711Z,83.04
2022-11-28T08:21:51.768Z,82.75
2022-11-28T08:23:56.116Z,82.48
2022-11-28T08:25:58.144Z,82.33
2022-11-28T08:28:00.094Z,82.64
2022-11-28T08:30:02.146Z,82.20
2022-11-28T08:32:04.278Z,82.41
2022-11-28T08:34:08.812Z,82.88
2022-11-28T08:36:12.730Z,82.75
2022-11-28T08:38:15.568Z,82.79
2022-11-28T08:40:17.544Z,82.50
2022-11-28T08:42:19.533Z,82.74
2022-11-28T08:44:21.403Z,82.64
2022-11-28T08:46:25.554Z,82.69
2022-11-28T08:48:27.610Z,82.58
2022-11-28T08:50:29.596Z,82.21
2022-11-28T08:52:31.515Z,82.76
2022-11-28T08:54:33.405Z,82.22
2022-11-28T08:56:35.796Z,82.18
2022-11-28T08:58:37.762Z,81.60
2022-11-28T09:00:40.254Z,82.09
2022-11-28T09:02:42.063Z,82.21
2022-11-28T09:04:43.902Z,82.09
2022-11-28T09:06:45.890Z,81.45
2022-11-28T09:08:48.307Z,81.71
2022-11-28T09:10:50.120Z,81.51
2022-11-28T09:12:52.803Z,81.37
2022-11-28T09:14:54.647Z,81.27
2022-11-28T09:16:56.569Z,81.25
2022-11-28T09:18:59.542Z,81.42
2022-11-28T09:21:03.875Z,81.08
2022-11-28T09:23:06.323Z,81.50
2022-11-28T09:25:08.948Z,80.56
2022-11-28T09:27:10.821Z,80.92
2022-11-28T09:29:12.704Z,80.41
2022-11-28T09:31:17.227Z,80.55
2022-11-28T09:33:19.250Z,80.03
2022-11-28T09:35:21.136Z,80.22
2022-11-28T09:37:23.057Z,79.29
2022-11-28T09:39:30.225Z,79.44
2022-11-28T09:41:50.270Z,78.95
2022-11-28T09:43:55.238Z,78.38
2022-11-28T09:45:59.728Z,79.07
2022-11-28T09:48:35.475Z,78.67
2022-11-28T09:50:41.695Z,78.32
2022-11-28T09:53:07.002Z,78.41
2022-11-28T09:55:31.969Z,78.65
2022-11-28T09:57:41.296Z,78.80
2022-11-28T09:59:43.478Z,79.30
2022-11-28T10:02:14.090Z,78.98
2022-11-28T10:04:27.382Z,79.22
2022-11-28T10:06:41.600Z,78.82
2022-11-28T10:08:50.658Z,78.85
2022-11-28T10:11:09.477Z,78.50
2022-11-28T10:14:07.090Z,78.74
2022-11-28T10:16:27.411Z,78.96
2022-11-28T10:18:40.198Z,78.77
2022-11-28T10:20:45.358Z,78.36
2022-11-28T10:22:50.990Z,78.40
2022-11-28T10:24:57.888Z,78.30
2022-11-28T10:27:04.341Z,78.89
2022-11-28T10:29:46.156Z,78.01
2022-11-28T10:31:49.890Z,78.71
2022-11-28T10:34:00.348Z,79.52
2022-11-28T10:36:03.597Z,79.59
2022-11-28T10:38:12.025Z,79.36
2022-11-28T10:40:43.642Z,78.95
2022-11-28T10:42:59.001Z,78.31
2022-11-28T10:45:03.957Z,78.46
2022-11-28T10:47:09.715Z,78.66
2022-11-28T10:49:25.164Z,78.76
2022-11-28T10:51:38.713Z,77.97
2022-11-28T10:54:02.670Z,78.00
2022-11-28T10:56:33.548Z,77.93
2022-11-28T10:59:09.384Z,78.06
2022-11-28T11:01:12.730Z,77.83
2022-11-28T11:03:17.710Z,77.68
2022-11-28T11:05:23.465Z,77.44
2022-11-28T11:07:33.643Z,77.10
2022-11-28T11:09:35.856Z,77.14
2022-11-28T11:11:46.931Z,76.88
2022-11-28T11:14:02.821Z,76.85
2022-11-28T11:16:08.250Z,76.97
2022-11-28T11:18:27.742Z,77.04
2022-11-28T11:20:31.480Z,76.44
2022-11-28T11:22:33.398Z,77.25
2022-11-28T11:24:35.373Z,76.96
2022-11-28T11:26:42.177Z,77.19
2022-11-28T11:28:47.253Z,77.34
2022-11-28T11:30:49.304Z,76.75
2022-11-28T11:32:51.883Z,76.98
2022-11-28T11:34:57.082Z,77.04
2022-11-28T11:37:20.441Z,76.81
2022-11-28T11:39:28.304Z,77.08
2022-11-28T11:41:33.895Z,77.40
2022-11-28T11:43:38.847Z,77.48
2022-11-28T11:45:47.237Z,77.50
2022-11-28T11:47:52.012Z,78.26
2022-11-28T11:50:03.397Z,77.56
2022-11-28T11:52:25.344Z,77.57
2022-11-28T11:54:27.398Z,77.74
2022-11-28T11:56:34.453Z,77.28
2022-11-28T11:58:47.663Z,76.69
2022-11-28T12:00:55.126Z,76.96
2022-11-28T12:03:41.352Z,77.71
2022-11-28T12:08:35.237Z,78.16
2022-11-28T12:10:45.582Z,78.02
2022-11-28T12:12:47.524Z,78.10
2022-11-28T12:14:50.867Z,77.82
2022-11-28T12:17:25.586Z,78.26
2022-11-28T12:20:05.513Z,78.42
2022-11-28T12:22:42.848Z,78.56
2022-11-28T12:25:20.545Z,78.06
2022-11-28T12:27:31.495Z,78.83
2022-11-28T12:30:14.504Z,78.28
2022-11-28T12:32:22.710Z,78.57
2022-11-28T12:34:42.001Z,78.57
2022-11-28T12:37:19.084Z,78.29
2022-11-28T12:39:50.054Z,78.23
2022-11-28T12:42:13.328Z,78.88
2022-11-28T12:44:37.935Z,78.66
2022-11-28T12:46:51.993Z,78.19
2022-11-28T12:49:18.372Z,78.45
2022-11-28T12:51:28.714Z,78.14
2022-11-28T12:53:59.683Z,77.75
2022-11-28T12:56:23.797Z,77.32
2022-11-28T12:58:32.261Z,77.08
2022-11-28T13:00:48.986Z,76.80
2022-11-28T13:03:09.438Z,76.69
2022-11-28T13:05:25.994Z,76.78
2022-11-28T13:07:46.651Z,76.54
2022-11-28T13:10:19.624Z,76.66
2022-11-28T13:12:46.080Z,77.11
2022-11-28T13:15:00.747Z,76.39
2022-11-28T13:17:37.174Z,76.66
2022-11-28T13:19:51.570Z,76.97
2022-11-28T13:22:02.301Z,76.97
2022-11-28T13:24:12.231Z,76.71
2022-11-28T13:26:47.627Z,76.15
2022-11-28T13:29:00.585Z,76.88
2022-11-28T13:31:32.166Z,78.17
2022-11-28T13:33:54.857Z,79.42
2022-11-28T13:35:59.739Z,79.44
2022-11-28T13:38:37.197Z,79.01
2022-11-28T13:40:48.480Z,78.70
2022-11-28T13:43:27.812Z,78.28
2022-11-28T13:51:30.491Z,77.80
2022-11-28T13:53:33.696Z,77.63
2022-11-28T13:55:47.243Z,76.76
2022-11-28T13:57:49.856Z,77.44
2022-11-28T13:59:56.879Z,77.57
2022-11-28T14:02:05.182Z,77.26
2022-11-28T14:04:12.282Z,77.22
2022-11-28T14:06:19.069Z,77.71
2022-11-28T14:08:36.702Z,76.97
2022-11-28T14:10:51.384Z,77.23
2022-11-28T14:12:58.765Z,77.21
2022-11-28T14:15:26.447Z,76.86
2022-11-28T14:17:49.287Z,76.89
2022-11-28T14:19:59.919Z,77.38
2022-11-28T14:22:33.406Z,77.68
2022-11-28T14:24:49.894Z,76.97
2022-11-28T14:26:59.619Z,76.98
2022-11-28T14:29:05.457Z,76.57
2022-11-28T14:31:11.322Z,76.51
2022-11-28T14:33:25.099Z,77.07
2022-11-28T14:36:01.980Z,76.91
2022-11-28T14:38:27.271Z,77.41
2022-11-28T14:40:57.041Z,76.92
2022-11-28T14:43:24.728Z,77.26
2022-11-28T14:45:42.344Z,77.01
2022-11-28T14:48:16.956Z,76.83
2022-11-28T14:50:20.970Z,77.43
2022-11-28T14:52:38.944Z,76.96
2022-11-28T14:54:45.535Z,76.99
2022-11-28T14:56:48.428Z,77.06
2022-11-28T14:58:52.701Z,77.11
2022-11-28T15:00:56.562Z,77.62
2022-11-28T15:03:23.809Z,76.93
2022-11-28T15:05:37.824Z,76.72
2022-11-28T15:08:18.788Z,76.85
2022-11-28T15:10:40.392Z,77.23
2022-11-28T15:13:03.604Z,77.21
2022-11-28T15:15:08.248Z,77.34
2022-11-28T15:17:13.430Z,77.43
2022-11-28T15:19:27.430Z,77.18
2022-11-28T15:21:29.525Z,77.43
2022-11-28T15:23:44.386Z,77.30
2022-11-28T15:25:53.396Z,77.74
2022-11-28T15:27:55.792Z,77.83
2022-11-28T15:30:01.167Z,77.56
2022-11-28T15:32:04.055Z,77.83
2022-11-28T15:34:10.182Z,78.20
2022-11-28T15:36:29.059Z,78.59
2022-11-28T15:38:32.486Z,78.82
2022-11-28T15:40:36.946Z,79.12
2022-11-28T15:42:39.164Z,79.06
2022-11-28T15:44:43.443Z,79.22
2022-11-28T15:46:47.071Z,78.95
2022-11-28T15:48:52.859Z,78.38
2022-11-28T15:50:55.078Z,78.92
2022-11-28T15:53:14.641Z,79.37
2022-11-28T15:55:17.825Z,78.94
2022-11-28T15:57:27.390Z,78.99
2022-11-28T15:59:29.828Z,78.80
2022-11-28T16:01:33.178Z,79.17
2022-11-28T16:03:57.228Z,79.24
2022-11-28T16:06:00.455Z,79.06
2022-11-28T16:08:02.718Z,78.57
2022-11-28T16:10:23.486Z,78.42
2022-11-28T16:12:26.961Z,78.61
2022-11-28T16:14:42.968Z,78.09
2022-11-28T16:16:45.148Z,78.42
2022-11-28T16:18:58.890Z,78.09
2022-11-28T16:21:02.121Z,78.25
2022-11-28T16:23:19.974Z,77.98
2022-11-28T16:25:25.447Z,77.91
2022-11-28T16:27:35.261Z,78.59
2022-11-28T16:29:46.681Z,78.28
2022-11-28T16:31:53.076Z,78.21
2022-11-28T16:33:56.228Z,78.13
2022-11-28T16:36:10.221Z,78.08
2022-11-28T16:38:21.334Z,77.45
2022-11-28T16:40:24.390Z,77.97
2022-11-28T16:42:26.860Z,77.96
2022-11-28T16:44:29.165Z,77.82
2022-11-28T16:46:42.327Z,77.97
2022-11-28T16:48:56.498Z,77.68
2022-11-28T16:51:14.890Z,78.00
2022-11-28T16:53:47.031Z,77.75
2022-11-28T16:55:49.453Z,77.72
2022-11-28T16:57:57.167Z,77.92
2022-11-28T16:59:59.121Z,77.19
2022-11-28T17:02:02.267Z,77.51
2022-11-28T17:04:05.996Z,77.22
2022-11-28T17:06:34.725Z,77.62
2022-11-28T17:08:37.028Z,77.22
2022-11-28T17:10:39.038Z,77.84
2022-11-28T17:12:42.376Z,77.22
2022-11-28T17:14:44.907Z,77.65
2022-11-28T17:16:47.293Z,77.49
2022-11-28T17:18:51.126Z,78.01
2022-11-28T17:20:53.591Z,77.88
2022-11-28T17:22:59.672Z,77.54
2022-11-28T17:25:02.829Z,77.66
2022-11-28T17:27:10.156Z,77.58
2022-11-28T17:29:15.568Z,77.64
2022-11-28T17:31:18.512Z,77.95
2022-11-28T17:33:23.626Z,78.07
2022-11-28T17:35:33.521Z,77.33
2022-11-28T17:37:38.503Z,77.40
2022-11-28T17:40:00.717Z,77.32
2022-11-28T17:42:03.030Z,77.77
2022-11-28T17:44:05.830Z,77.38
2022-11-28T17:46:13.755Z,77.04
2022-11-28T17:48:16.984Z,77.35
2022-11-28T17:50:19.374Z,77.22
2022-11-28T17:52:22.441Z,77.37
2022-11-28T17:54:26.599Z,77.22
2022-11-28T17:56:32.914Z,77.34
2022-11-28T17:58:35.337Z,77.67
2022-11-28T18:00:37.750Z,77.44
2022-11-28T18:02:40.152Z,77.15
2022-11-28T18:04:44.705Z,76.94
2022-11-28T18:06:48.199Z,77.11
2022-11-28T18:08:51.554Z,77.17
2022-11-28T18:11:06.697Z,77.57
2022-11-28T18:13:10.717Z,77.12
2022-11-28T18:15:13.066Z,76.73
2022-11-28T18:17:15.520Z,76.90
2022-11-28T18:19:18.018Z,77.59
2022-11-28T18:21:24.011Z,77.61
2022-11-28T18:23:26.082Z,77.34
2022-11-28T18:25:28.852Z,77.91
2022-11-28T18:27:34.335Z,77.78
2022-11-28T18:29:36.770Z,77.47
2022-11-28T18:31:39.796Z,77.51
2022-11-28T18:33:43.507Z,77.40
2022-11-28T18:35:48.832Z,76.69
2022-11-28T18:37:51.709Z,77.00
2022-11-28T18:39:54.099Z,76.41
2022-11-28T18:41:57.411Z,76.21
2022-11-28T18:44:02.318Z,76.46
2022-11-28T18:46:16.980Z,76.46
2022-11-28T18:48:19.585Z,76.22
2022-11-28T18:50:24.815Z,76.78
2022-11-28T18:52:26.768Z,76.49
2022-11-28T18:54:31.629Z,76.28
2022-11-28T18:56:34.447Z,76.32
2022-11-28T18:58:38.918Z,76.60
2022-11-28T19:00:42.508Z,76.31
2022-11-28T19:02:44.969Z,76.16
2022-11-28T19:04:50.072Z,76.21
2022-11-28T19:06:54.359Z,76.37
2022-11-28T19:09:00.368Z,76.58
2022-11-28T19:11:04.588Z,76.25
2022-11-28T19:13:07.557Z,76.38
2022-11-28T19:15:15.149Z,76.22
2022-11-28T19:17:18.590Z,76.78
2022-11-28T19:19:21.584Z,76.81
2022-11-28T19:21:32.314Z,76.36
2022-11-28T19:23:35.018Z,76.76
2022-11-28T19:25:37.401Z,76.70
2022-11-28T19:27:39.981Z,76.69
2022-11-28T19:29:45.332Z,76.94
2022-11-28T19:31:48.023Z,76.84
2022-11-28T19:34:02.120Z,76.88
2022-11-28T19:36:06.972Z,76.44
2022-11-28T19:38:10.087Z,76.72
2022-11-28T19:40:12.853Z,77.17
2022-11-28T19:42:16.010Z,77.19
2022-11-28T19:44:22.622Z,76.82
2022-11-28T19:46:29.220Z,76.98
2022-11-28T19:48:37.185Z,77.58
2022-11-28T19:50:39.138Z,76.70
2022-11-28T19:52:41.274Z,76.79
2022-11-28T19:54:43.695Z,77.29
2022-11-28T19:56:46.751Z,77.33
2022-11-28T19:58:53.994Z,77.11
2022-11-28T20:01:10.113Z,77.24
2022-11-28T20:03:14.378Z,76.58
2022-11-28T20:05:16.862Z,76.69
2022-11-28T20:07:23.881Z,76.80
2022-11-28T20:09:28.658Z,76.91
2022-11-28T20:11:33.961Z,76.87
2022-11-28T20:13:36.626Z,76.67
2022-11-28T20:15:39.154Z,76.98
2022-11-28T20:17:42.483Z,77.10
2022-11-28T20:19:46.217Z,77.26
2022-11-28T20:21:49.005Z,76.64
2022-11-28T20:23:53.827Z,76.88
2022-11-28T20:25:56.938Z,77.15
2022-11-28T20:27:58.945Z,76.88
2022-11-28T20:30:05.346Z,77.00
2022-11-28T20:32:12.911Z,77.06
2022-11-28T20:34:23.787Z,77.02
2022-11-28T20:36:28.571Z,76.67
2022-11-28T20:38:39.134Z,76.89
2022-11-28T20:40:44.812Z,77.03
2022-11-28T20:42:46.847Z,76.92
2022-11-28T20:44:49.290Z,77.43
2022-11-28T20:46:55.670Z,77.17
2022-11-28T20:49:07.223Z,77.43
2022-11-28T20:51:20.397Z,77.34
2022-11-28T20:53:30.890Z,77.14
2022-11-28T20:55:33.340Z,76.95
2022-11-28T20:57:44.477Z,77.28
2022-11-28T20:59:47.070Z,76.93
2022-11-28T21:01:49.441Z,77.41
2022-11-28T21:03:57.525Z,77.45
2022-11-28T21:06:01.944Z,77.19
2022-11-28T21:08:05.677Z,77.14
2022-11-28T21:10:18.336Z,77.05
2022-11-28T21:12:32.743Z,76.50
2022-11-28T21:17:54.043Z,76.20
2022-11-28T21:20:02.510Z,76.83
2022-11-28T21:22:23.957Z,76.58
2022-11-28T21:24:25.890Z,76.03
2022-11-28T21:26:41.079Z,76.30
2022-11-28T21:29:00.142Z,75.96
2022-11-28T21:31:18.210Z,75.47
2022-11-28T21:33:24.106Z,75.72
2022-11-28T21:35:29.008Z,75.08
2022-11-28T21:37:32.062Z,74.81
2022-11-28T21:39:37.009Z,75.57
2022-11-28T21:44:01.733Z,75.48
2022-11-28T21:46:07.545Z,75.00
2022-11-28T21:48:12.022Z,75.61
2022-11-28T21:50:26.250Z,75.21
2022-11-28T21:52:45.126Z,75.56
2022-11-28T21:54:46.995Z,75.16
2022-11-28T21:57:11.276Z,75.59
2022-11-28T21:59:19.161Z,75.60
2022-11-28T22:01:37.112Z,75.67
2022-11-28T22:03:49.752Z,75.31
2022-11-28T22:06:20.633Z,75.55
2022-11-28T22:08:35.991Z,75.25
2022-11-28T22:10:53.000Z,75.30
2022-11-28T22:13:05.556Z,75.33
2022-11-28T22:15:13.296Z,75.17
2022-11-28T22:18:01.216Z,75.63
2022-11-28T22:20:08.201Z,75.37
2022-11-28T22:22:19.097Z,75.68
2022-11-28T22:24:35.253Z,75.36
2022-11-28T22:27:04.510Z,75.74
2022-11-28T22:29:06.565Z,75.45
2022-11-28T22:31:14.777Z,75.58
2022-11-28T22:33:17.663Z,75.24
2022-11-28T22:35:23.664Z,75.29
2022-11-28T22:37:27.498Z,75.41
2022-11-28T22:39:29.375Z,75.76
2022-11-28T22:41:32.284Z,75.62
2022-11-28T22:43:34.397Z,76.23
2022-11-28T22:45:37.317Z,75.82
2022-11-28T22:47:39.184Z,75.73
2022-11-28T22:49:41.045Z,75.84
2022-11-28T22:51:42.989Z,75.62
2022-11-28T22:53:45.187Z,76.09
2022-11-28T22:55:47.092Z,75.50
2022-11-28T22:57:52.019Z,75.88
2022-11-28T22:59:54.096Z,75.85
2022-11-28T23:01:56.190Z,76.10
2022-11-28T23:03:59.101Z,76.00
2022-11-28T23:06:13.773Z,76.09
2022-11-28T23:08:15.612Z,76.02
2022-11-28T23:10:17.806Z,75.99
2022-11-28T23:12:26.605Z,75.96
2022-11-28T23:14:28.567Z,75.79
2022-11-28T23:16:39.175Z,75.47
2022-11-28T23:18:43.484Z,75.70
2022-11-28T23:20:46.301Z,76.18
2022-11-28T23:22:50.198Z,75.58
2022-11-28T23:24:53.066Z,75.71
2022-11-28T23:26:56.935Z,75.75
2022-11-28T23:29:03.796Z,75.67
2022-11-28T23:31:13.775Z,75.88
2022-11-28T23:33:15.655Z,75.63
2022-11-28T23:35:17.569Z,76.16
2022-11-28T23:37:19.498Z,76.07
2022-11-28T23:39:22.712Z,75.07
2022-11-28T23:41:25.556Z,75.76
2022-11-28T23:43:27.376Z,75.95
2022-11-28T23:45:29.219Z,75.46
2022-11-28T23:47:31.071Z,75.83
2022-11-28T23:49:32.937Z,75.69
2022-11-28T23:51:35.192Z,75.55
2022-11-28T23:53:37.135Z,76.01
2022-11-28T23:55:38.973Z,75.55
2022-11-28T23:57:40.849Z,75.86
2022-11-28T23:59:42.649Z,75.67
